sensor_id;sensor_type;location;lat;lon;timestamp;pressure;altitude;pressure_sealevel;temperature;humidity
33554;BME280;19885;42.208;24.952;2022-09-02T00:00:57;99525.09;;;24.60;81.52
33554;BME280;19885;42.208;24.952;2022-09-02T00:03:25;99531.28;;;24.60;81.81
33554;BME280;19885;42.208;24.952;2022-09-02T00:05:52;99527.69;;;24.61;81.77
33554;BME280;19885;42.208;24.952;2022-09-02T00:08:17;99520.88;;;24.56;81.24
33554;BME280;19885;42.208;24.952;2022-09-02T00:10:43;99495.25;;;24.38;81.41
33554;BME280;19885;42.208;24.952;2022-09-02T00:13:11;99522.84;;;24.52;80.84
33554;BME280;19885;42.208;24.952;2022-09-02T00:15:37;99530.84;;;24.37;81.27
33554;BME280;19885;42.208;24.952;2022-09-02T00:18:03;99482.94;;;23.87;82.14
33554;BME280;19885;42.208;24.952;2022-09-02T00:20:31;99520.06;;;24.23;81.44
33554;BME280;19885;42.208;24.952;2022-09-02T00:22:58;99521.34;;;24.16;81.35
33554;BME280;19885;42.208;24.952;2022-09-02T00:25:26;99523.38;;;24.10;82.20
33554;BME280;19885;42.208;24.952;2022-09-02T00:27:51;99520.13;;;23.88;83.02
33554;BME280;19885;42.208;24.952;2022-09-02T00:30:17;99519.94;;;23.76;83.91
33554;BME280;19885;42.208;24.952;2022-09-02T00:32:43;99519.59;;;23.82;83.84
33554;BME280;19885;42.208;24.952;2022-09-02T00:35:09;99513.09;;;23.87;83.53
33554;BME280;19885;42.208;24.952;2022-09-02T00:37:36;99506.53;;;23.77;84.38
33554;BME280;19885;42.208;24.952;2022-09-02T00:40:02;99515.91;;;23.84;84.51
33554;BME280;19885;42.208;24.952;2022-09-02T00:42:28;99500.66;;;23.71;84.96
33554;BME280;19885;42.208;24.952;2022-09-02T00:44:53;99510.34;;;23.89;84.51
33554;BME280;19885;42.208;24.952;2022-09-02T00:47:21;99507.59;;;24.07;83.91
33554;BME280;19885;42.208;24.952;2022-09-02T00:49:49;99516.44;;;23.91;84.87
33554;BME280;19885;42.208;24.952;2022-09-02T00:55:00;99517.03;;;23.80;85.71
33554;BME280;19885;42.208;24.952;2022-09-02T00:57:31;99517.72;;;23.84;85.50
33554;BME280;19885;42.208;24.952;2022-09-02T01:03:01;99519.28;;;23.54;87.17
33554;BME280;19885;42.208;24.952;2022-09-02T01:05:30;99525.28;;;23.42;88.37
33554;BME280;19885;42.208;24.952;2022-09-02T01:07:57;99526.94;;;23.25;89.25
33554;BME280;19885;42.208;24.952;2022-09-02T01:10:27;99520.06;;;23.21;89.42
33554;BME280;19885;42.208;24.952;2022-09-02T01:12:59;99521.69;;;23.07;90.61
33554;BME280;19885;42.208;24.952;2022-09-02T01:15:25;99515.25;;;23.11;90.71
33554;BME280;19885;42.208;24.952;2022-09-02T01:17:51;99513.34;;;23.14;90.04
33554;BME280;19885;42.208;24.952;2022-09-02T01:20:21;99514.41;;;23.10;90.10
33554;BME280;19885;42.208;24.952;2022-09-02T01:22:48;99507.28;;;23.11;90.25
33554;BME280;19885;42.208;24.952;2022-09-02T01:25:24;99508.47;;;23.05;90.52
33554;BME280;19885;42.208;24.952;2022-09-02T01:27:50;99515.59;;;23.05;91.15
33554;BME280;19885;42.208;24.952;2022-09-02T01:30:24;99515.53;;;22.88;92.69
33554;BME280;19885;42.208;24.952;2022-09-02T01:32:50;99515.75;;;22.83;93.49
33554;BME280;19885;42.208;24.952;2022-09-02T01:35:16;99518.63;;;22.79;94.04
33554;BME280;19885;42.208;24.952;2022-09-02T01:37:43;99513.19;;;22.82;93.89
33554;BME280;19885;42.208;24.952;2022-09-02T01:40:11;99505.31;;;22.97;93.11
33554;BME280;19885;42.208;24.952;2022-09-02T01:42:38;99505.41;;;22.96;92.63
33554;BME280;19885;42.208;24.952;2022-09-02T01:45:06;99496.31;;;22.83;92.75
33554;BME280;19885;42.208;24.952;2022-09-02T01:47:33;99516.94;;;22.78;93.66
33554;BME280;19885;42.208;24.952;2022-09-02T01:50:05;99505.75;;;22.71;93.58
33554;BME280;19885;42.208;24.952;2022-09-02T01:52:31;99499.88;;;22.64;94.25
33554;BME280;19885;42.208;24.952;2022-09-02T01:54:57;99502.59;;;22.99;92.62
33554;BME280;19885;42.208;24.952;2022-09-02T01:57:25;99505.31;;;22.97;92.28
33554;BME280;19885;42.208;24.952;2022-09-02T01:59:52;99471.66;;;22.79;91.67
33554;BME280;19885;42.208;24.952;2022-09-02T02:02:18;99510.25;;;23.05;91.30
33554;BME280;19885;42.208;24.952;2022-09-02T02:04:46;99507.91;;;23.33;90.15
33554;BME280;19885;42.208;24.952;2022-09-02T02:07:13;99510.88;;;23.46;89.39
33554;BME280;19885;42.208;24.952;2022-09-02T02:09:40;99507.59;;;23.22;89.64
33554;BME280;19885;42.208;24.952;2022-09-02T02:12:05;99513.91;;;23.38;89.96
33554;BME280;19885;42.208;24.952;2022-09-02T02:14:32;99518.13;;;23.59;88.00
33554;BME280;19885;42.208;24.952;2022-09-02T02:16:57;99516.03;;;23.49;87.92
33554;BME280;19885;42.208;24.952;2022-09-02T02:19:23;99515.47;;;23.59;87.58
33554;BME280;19885;42.208;24.952;2022-09-02T02:21:49;99519.53;;;23.49;87.92
33554;BME280;19885;42.208;24.952;2022-09-02T02:24:14;99514.00;;;23.36;88.32
33554;BME280;19885;42.208;24.952;2022-09-02T02:26:40;99520.53;;;23.29;88.53
33554;BME280;19885;42.208;24.952;2022-09-02T02:29:06;99516.13;;;23.28;89.17
33554;BME280;19885;42.208;24.952;2022-09-02T02:31:31;99512.16;;;23.20;89.20
33554;BME280;19885;42.208;24.952;2022-09-02T02:33:57;99510.72;;;22.96;90.44
33554;BME280;19885;42.208;24.952;2022-09-02T02:36:24;99512.28;;;23.00;90.13
33554;BME280;19885;42.208;24.952;2022-09-02T02:38:50;99506.00;;;22.84;90.99
33554;BME280;19885;42.208;24.952;2022-09-02T02:41:18;99507.06;;;22.98;90.47
33554;BME280;19885;42.208;24.952;2022-09-02T02:43:43;99507.59;;;23.05;89.59
33554;BME280;19885;42.208;24.952;2022-09-02T02:46:09;99503.97;;;22.89;90.40
33554;BME280;19885;42.208;24.952;2022-09-02T02:48:36;99500.31;;;23.08;89.80
33554;BME280;19885;42.208;24.952;2022-09-02T02:51:04;99505.72;;;22.90;89.90
33554;BME280;19885;42.208;24.952;2022-09-02T02:53:30;99502.81;;;22.94;89.84
33554;BME280;19885;42.208;24.952;2022-09-02T02:55:59;99496.47;;;22.97;89.66
33554;BME280;19885;42.208;24.952;2022-09-02T02:58:25;99473.22;;;22.66;90.09
33554;BME280;19885;42.208;24.952;2022-09-02T03:00:51;99498.88;;;22.84;90.25
33554;BME280;19885;42.208;24.952;2022-09-02T03:03:16;99499.66;;;22.86;90.32
33554;BME280;19885;42.208;24.952;2022-09-02T03:05:44;99498.09;;;22.82;90.24
33554;BME280;19885;42.208;24.952;2022-09-02T03:08:10;99482.31;;;22.79;90.19
33554;BME280;19885;42.208;24.952;2022-09-02T03:10:37;99483.69;;;22.69;90.09
33554;BME280;19885;42.208;24.952;2022-09-02T03:13:06;99500.34;;;22.73;90.71
33554;BME280;19885;42.208;24.952;2022-09-02T03:15:32;99503.94;;;22.72;90.63
33554;BME280;19885;42.208;24.952;2022-09-02T03:17:57;99508.91;;;22.60;91.38
33554;BME280;19885;42.208;24.952;2022-09-02T03:20:23;99501.72;;;22.62;91.66
33554;BME280;19885;42.208;24.952;2022-09-02T03:22:49;99509.03;;;22.76;90.72
33554;BME280;19885;42.208;24.952;2022-09-02T03:25:18;99495.47;;;22.63;90.96
33554;BME280;19885;42.208;24.952;2022-09-02T03:27:45;99495.75;;;22.57;91.61
33554;BME280;19885;42.208;24.952;2022-09-02T03:30:14;99508.16;;;22.57;91.83
33554;BME280;19885;42.208;24.952;2022-09-02T03:32:41;99514.00;;;22.65;91.50
33554;BME280;19885;42.208;24.952;2022-09-02T03:35:09;99508.97;;;22.78;90.68
33554;BME280;19885;42.208;24.952;2022-09-02T03:37:35;99506.94;;;22.83;90.84
33554;BME280;19885;42.208;24.952;2022-09-02T03:40:06;99487.50;;;22.63;90.66
33554;BME280;19885;42.208;24.952;2022-09-02T03:42:32;99517.91;;;22.56;91.19
33554;BME280;19885;42.208;24.952;2022-09-02T03:44:58;99502.75;;;22.60;91.41
33554;BME280;19885;42.208;24.952;2022-09-02T03:47:24;99506.59;;;22.53;91.70
33554;BME280;19885;42.208;24.952;2022-09-02T03:49:53;99506.88;;;22.65;91.08
33554;BME280;19885;42.208;24.952;2022-09-02T03:52:19;99514.28;;;22.78;90.11
33554;BME280;19885;42.208;24.952;2022-09-02T03:54:44;99513.03;;;22.85;89.72
33554;BME280;19885;42.208;24.952;2022-09-02T03:57:10;99509.44;;;22.86;89.61
33554;BME280;19885;42.208;24.952;2022-09-02T03:59:38;99511.75;;;22.75;89.91
33554;BME280;19885;42.208;24.952;2022-09-02T04:02:04;99513.19;;;22.82;89.17
33554;BME280;19885;42.208;24.952;2022-09-02T04:04:30;99515.19;;;22.77;89.43
33554;BME280;19885;42.208;24.952;2022-09-02T04:06:56;99516.34;;;22.90;88.59
33554;BME280;19885;42.208;24.952;2022-09-02T04:09:21;99512.38;;;22.98;88.06
33554;BME280;19885;42.208;24.952;2022-09-02T04:11:49;99515.72;;;23.02;88.32
33554;BME280;19885;42.208;24.952;2022-09-02T04:14:18;99521.22;;;22.99;88.01
33554;BME280;19885;42.208;24.952;2022-09-02T04:16:43;99524.16;;;22.93;88.19
33554;BME280;19885;42.208;24.952;2022-09-02T04:19:09;99524.66;;;23.01;88.29
33554;BME280;19885;42.208;24.952;2022-09-02T04:21:39;99538.78;;;23.01;88.21
33554;BME280;19885;42.208;24.952;2022-09-02T04:24:07;99527.09;;;23.05;87.78
33554;BME280;19885;42.208;24.952;2022-09-02T04:26:34;99525.75;;;23.14;87.35
33554;BME280;19885;42.208;24.952;2022-09-02T04:29:00;99540.88;;;22.95;88.06
33554;BME280;19885;42.208;24.952;2022-09-02T04:31:26;99532.22;;;23.08;87.48
33554;BME280;19885;42.208;24.952;2022-09-02T04:33:54;99540.88;;;22.95;88.13
33554;BME280;19885;42.208;24.952;2022-09-02T04:36:21;99540.44;;;23.04;87.31
33554;BME280;19885;42.208;24.952;2022-09-02T04:38:48;99511.13;;;23.05;87.36
33554;BME280;19885;42.208;24.952;2022-09-02T04:41:19;99546.88;;;23.17;86.90
33554;BME280;19885;42.208;24.952;2022-09-02T04:43:48;99549.88;;;23.28;86.77
33554;BME280;19885;42.208;24.952;2022-09-02T04:46:14;99554.59;;;23.40;86.00
33554;BME280;19885;42.208;24.952;2022-09-02T04:48:41;99547.81;;;23.69;84.10
33554;BME280;19885;42.208;24.952;2022-09-02T04:51:19;99551.78;;;23.43;85.76
33554;BME280;19885;42.208;24.952;2022-09-02T04:53:46;99545.75;;;23.57;84.74
33554;BME280;19885;42.208;24.952;2022-09-02T04:56:15;99531.03;;;23.32;85.12
33554;BME280;19885;42.208;24.952;2022-09-02T04:58:42;99558.91;;;23.42;85.18
33554;BME280;19885;42.208;24.952;2022-09-02T05:01:14;99556.25;;;23.24;86.16
33554;BME280;19885;42.208;24.952;2022-09-02T05:03:41;99551.44;;;23.32;85.90
33554;BME280;19885;42.208;24.952;2022-09-02T05:06:09;99541.94;;;23.26;86.21
33554;BME280;19885;42.208;24.952;2022-09-02T05:08:35;99551.56;;;23.29;85.79
33554;BME280;19885;42.208;24.952;2022-09-02T05:11:05;99556.47;;;23.38;85.38
33554;BME280;19885;42.208;24.952;2022-09-02T05:13:31;99540.91;;;23.48;85.73
33554;BME280;19885;42.208;24.952;2022-09-02T05:15:56;99546.59;;;23.40;85.55
33554;BME280;19885;42.208;24.952;2022-09-02T05:18:22;99539.97;;;23.49;85.39
33554;BME280;19885;42.208;24.952;2022-09-02T05:20:47;99552.66;;;23.78;84.51
33554;BME280;19885;42.208;24.952;2022-09-02T05:23:13;99542.66;;;23.98;83.66
33554;BME280;19885;42.208;24.952;2022-09-02T05:25:39;99541.56;;;24.02;82.48
33554;BME280;19885;42.208;24.952;2022-09-02T05:28:06;99540.47;;;24.06;83.03
33554;BME280;19885;42.208;24.952;2022-09-02T05:30:36;99540.00;;;23.98;82.98
33554;BME280;19885;42.208;24.952;2022-09-02T05:33:03;99540.31;;;24.09;83.23
33554;BME280;19885;42.208;24.952;2022-09-02T05:35:29;99535.41;;;24.35;81.67
33554;BME280;19885;42.208;24.952;2022-09-02T05:37:55;99541.44;;;24.05;81.95
33554;BME280;19885;42.208;24.952;2022-09-02T05:40:21;99531.69;;;24.04;82.25
33554;BME280;19885;42.208;24.952;2022-09-02T05:42:47;99529.94;;;24.21;82.10
33554;BME280;19885;42.208;24.952;2022-09-02T05:45:12;99525.75;;;24.17;80.82
33554;BME280;19885;42.208;24.952;2022-09-02T05:47:39;99521.38;;;23.98;82.51
33554;BME280;19885;42.208;24.952;2022-09-02T05:50:05;99534.31;;;24.22;81.98
33554;BME280;19885;42.208;24.952;2022-09-02T05:52:30;99520.59;;;24.60;80.03
33554;BME280;19885;42.208;24.952;2022-09-02T05:54:56;99525.41;;;24.69;80.99
33554;BME280;19885;42.208;24.952;2022-09-02T05:57:23;99520.63;;;25.07;79.02
33554;BME280;19885;42.208;24.952;2022-09-02T05:59:50;99509.97;;;24.92;79.18
33554;BME280;19885;42.208;24.952;2022-09-02T06:02:21;99519.88;;;25.19;78.09
33554;BME280;19885;42.208;24.952;2022-09-02T06:04:49;99532.03;;;25.25;78.05
33554;BME280;19885;42.208;24.952;2022-09-02T06:07:17;99523.63;;;25.46;76.21
33554;BME280;19885;42.208;24.952;2022-09-02T06:09:43;99532.06;;;25.39;76.60
33554;BME280;19885;42.208;24.952;2022-09-02T06:12:12;99539.06;;;24.96;78.45
33554;BME280;19885;42.208;24.952;2022-09-02T06:14:39;99549.03;;;24.93;78.51
33554;BME280;19885;42.208;24.952;2022-09-02T06:17:06;99536.31;;;24.82;77.92
33554;BME280;19885;42.208;24.952;2022-09-02T06:19:32;99551.06;;;24.72;79.46
33554;BME280;19885;42.208;24.952;2022-09-02T06:21:59;99534.72;;;25.09;77.20
33554;BME280;19885;42.208;24.952;2022-09-02T06:24:25;99549.88;;;24.93;78.61
33554;BME280;19885;42.208;24.952;2022-09-02T06:26:52;99550.66;;;24.95;78.96
33554;BME280;19885;42.208;24.952;2022-09-02T06:29:19;99555.31;;;25.07;77.38
33554;BME280;19885;42.208;24.952;2022-09-02T06:31:46;99535.78;;;24.91;78.32
33554;BME280;19885;42.208;24.952;2022-09-02T06:34:14;99551.09;;;25.03;77.85
33554;BME280;19885;42.208;24.952;2022-09-02T06:36:42;99558.13;;;25.04;78.16
33554;BME280;19885;42.208;24.952;2022-09-02T06:39:13;99552.19;;;24.99;78.35
33554;BME280;19885;42.208;24.952;2022-09-02T06:41:41;99530.75;;;24.69;78.72
33554;BME280;19885;42.208;24.952;2022-09-02T06:44:08;99569.31;;;24.79;79.54
33554;BME280;19885;42.208;24.952;2022-09-02T06:46:40;99559.88;;;25.05;79.13
33554;BME280;19885;42.208;24.952;2022-09-02T06:49:09;99529.75;;;24.88;77.69
33554;BME280;19885;42.208;24.952;2022-09-02T06:51:41;99565.47;;;24.85;77.90
33554;BME280;19885;42.208;24.952;2022-09-02T06:54:09;99559.69;;;24.77;78.83
33554;BME280;19885;42.208;24.952;2022-09-02T06:56:36;99538.47;;;24.75;78.18
33554;BME280;19885;42.208;24.952;2022-09-02T06:59:04;99549.72;;;24.81;78.00
33554;BME280;19885;42.208;24.952;2022-09-02T07:01:31;99547.00;;;25.27;77.23
33554;BME280;19885;42.208;24.952;2022-09-02T07:03:57;99562.84;;;25.60;76.51
33554;BME280;19885;42.208;24.952;2022-09-02T07:06:46;99561.88;;;25.91;76.07
33554;BME280;19885;42.208;24.952;2022-09-02T07:09:19;99543.44;;;26.16;72.96
33554;BME280;19885;42.208;24.952;2022-09-02T07:11:45;99565.66;;;26.45;71.96
33554;BME280;19885;42.208;24.952;2022-09-02T07:14:16;99571.28;;;26.40;72.03
33554;BME280;19885;42.208;24.952;2022-09-02T07:16:45;99570.28;;;25.99;73.33
33554;BME280;19885;42.208;24.952;2022-09-02T07:19:11;99571.97;;;26.15;72.72
33554;BME280;19885;42.208;24.952;2022-09-02T07:21:36;99549.78;;;25.99;72.23
33554;BME280;19885;42.208;24.952;2022-09-02T07:24:04;99571.31;;;26.12;73.46
33554;BME280;19885;42.208;24.952;2022-09-02T07:26:29;99576.84;;;26.37;72.34
33554;BME280;19885;42.208;24.952;2022-09-02T07:28:55;99575.03;;;26.24;71.79
33554;BME280;19885;42.208;24.952;2022-09-02T07:31:23;99566.34;;;26.34;72.63
33554;BME280;19885;42.208;24.952;2022-09-02T07:33:51;99570.13;;;26.58;71.09
33554;BME280;19885;42.208;24.952;2022-09-02T07:36:17;99561.34;;;26.56;71.02
33554;BME280;19885;42.208;24.952;2022-09-02T07:38:45;99556.88;;;26.43;71.01
33554;BME280;19885;42.208;24.952;2022-09-02T07:41:11;99569.56;;;26.81;70.05
33554;BME280;19885;42.208;24.952;2022-09-02T07:43:37;99569.75;;;26.64;71.08
33554;BME280;19885;42.208;24.952;2022-09-02T07:46:05;99572.31;;;26.66;71.03
33554;BME280;19885;42.208;24.952;2022-09-02T07:48:32;99572.78;;;27.01;68.85
33554;BME280;19885;42.208;24.952;2022-09-02T07:50:59;99571.56;;;27.19;68.45
33554;BME280;19885;42.208;24.952;2022-09-02T07:53:24;99571.34;;;27.22;68.75
33554;BME280;19885;42.208;24.952;2022-09-02T07:55:50;99565.38;;;27.31;68.14
33554;BME280;19885;42.208;24.952;2022-09-02T07:58:17;99563.31;;;27.22;68.25
33554;BME280;19885;42.208;24.952;2022-09-02T08:00:44;99565.94;;;27.36;67.51
33554;BME280;19885;42.208;24.952;2022-09-02T08:03:11;99569.09;;;27.16;69.11
33554;BME280;19885;42.208;24.952;2022-09-02T08:05:37;99575.06;;;27.19;68.42
33554;BME280;19885;42.208;24.952;2022-09-02T08:08:05;99571.25;;;27.23;69.31
33554;BME280;19885;42.208;24.952;2022-09-02T08:10:31;99563.09;;;27.12;66.87
33554;BME280;19885;42.208;24.952;2022-09-02T08:12:58;99568.41;;;26.85;67.96
33554;BME280;19885;42.208;24.952;2022-09-02T08:15:29;99562.38;;;27.23;67.39
33554;BME280;19885;42.208;24.952;2022-09-02T08:17:56;99564.59;;;27.43;67.40
33554;BME280;19885;42.208;24.952;2022-09-02T08:20:22;99564.66;;;27.68;67.50
33554;BME280;19885;42.208;24.952;2022-09-02T08:22:47;99557.81;;;27.77;67.26
33554;BME280;19885;42.208;24.952;2022-09-02T08:25:13;99555.00;;;27.66;64.10
33554;BME280;19885;42.208;24.952;2022-09-02T08:27:39;99555.41;;;27.20;65.49
33554;BME280;19885;42.208;24.952;2022-09-02T08:30:06;99560.09;;;27.17;66.41
33554;BME280;19885;42.208;24.952;2022-09-02T08:32:34;99548.41;;;27.44;65.29
33554;BME280;19885;42.208;24.952;2022-09-02T08:35:02;99552.41;;;26.98;66.04
33554;BME280;19885;42.208;24.952;2022-09-02T08:37:31;99559.47;;;26.99;67.24
33554;BME280;19885;42.208;24.952;2022-09-02T08:39:57;99557.13;;;26.80;67.61
33554;BME280;19885;42.208;24.952;2022-09-02T08:45:07;99529.69;;;27.18;66.52
33554;BME280;19885;42.208;24.952;2022-09-02T08:47:41;99485.16;;;26.49;67.99
33554;BME280;19885;42.208;24.952;2022-09-02T08:50:13;99531.63;;;26.89;67.25
33554;BME280;19885;42.208;24.952;2022-09-02T08:55:42;99513.50;;;26.66;67.25
33554;BME280;19885;42.208;24.952;2022-09-02T08:58:10;99512.34;;;26.84;67.04
33554;BME280;19885;42.208;24.952;2022-09-02T09:00:40;99525.69;;;26.84;67.71
33554;BME280;19885;42.208;24.952;2022-09-02T09:03:28;99520.66;;;26.51;68.06
33554;BME280;19885;42.208;24.952;2022-09-02T09:08:45;99513.09;;;26.72;70.10
33554;BME280;19885;42.208;24.952;2022-09-02T09:11:25;99503.75;;;26.79;71.03
33554;BME280;19885;42.208;24.952;2022-09-02T09:14:32;99498.25;;;26.95;71.20
33554;BME280;19885;42.208;24.952;2022-09-02T09:17:01;99495.69;;;26.93;70.50
33554;BME280;19885;42.208;24.952;2022-09-02T09:19:45;99491.44;;;27.03;70.72
33554;BME280;19885;42.208;24.952;2022-09-02T09:22:14;99510.47;;;26.99;69.04
33554;BME280;19885;42.208;24.952;2022-09-02T09:24:44;99510.34;;;26.59;69.91
33554;BME280;19885;42.208;24.952;2022-09-02T09:27:16;99512.09;;;26.46;68.72
33554;BME280;19885;42.208;24.952;2022-09-02T09:29:42;99511.72;;;26.24;69.14
33554;BME280;19885;42.208;24.952;2022-09-02T09:35:07;99515.25;;;26.53;71.51
33554;BME280;19885;42.208;24.952;2022-09-02T09:37:42;99502.94;;;26.22;71.84
33554;BME280;19885;42.208;24.952;2022-09-02T09:40:28;99509.63;;;26.29;72.84
33554;BME280;19885;42.208;24.952;2022-09-02T09:43:11;99505.72;;;26.21;73.36
33554;BME280;19885;42.208;24.952;2022-09-02T09:45:46;99501.03;;;26.24;74.29
33554;BME280;19885;42.208;24.952;2022-09-02T09:51:10;99523.75;;;26.03;72.75
33554;BME280;19885;42.208;24.952;2022-09-02T09:53:36;99534.50;;;26.01;73.73
33554;BME280;19885;42.208;24.952;2022-09-02T09:56:06;99509.03;;;25.82;72.84
33554;BME280;19885;42.208;24.952;2022-09-02T09:58:49;99512.66;;;25.95;74.01
33554;BME280;19885;42.208;24.952;2022-09-02T10:01:23;99503.41;;;26.29;75.15
33554;BME280;19885;42.208;24.952;2022-09-02T10:06:45;99503.53;;;26.41;74.78
33554;BME280;19885;42.208;24.952;2022-09-02T10:12:05;99497.88;;;26.46;73.91
33554;BME280;19885;42.208;24.952;2022-09-02T10:14:42;99488.63;;;26.37;75.44
33554;BME280;19885;42.208;24.952;2022-09-02T10:20:00;99499.13;;;26.26;77.43
33554;BME280;19885;42.208;24.952;2022-09-02T10:25:43;99537.28;;;26.42;78.34
33554;BME280;19885;42.208;24.952;2022-09-02T10:36:08;99542.97;;;25.80;82.11
33554;BME280;19885;42.208;24.952;2022-09-02T10:38:42;99545.94;;;25.75;82.95
33554;BME280;19885;42.208;24.952;2022-09-02T10:41:40;99546.63;;;25.49;83.60
33554;BME280;19885;42.208;24.952;2022-09-02T10:44:23;99562.84;;;25.30;83.24
33554;BME280;19885;42.208;24.952;2022-09-02T10:47:15;99554.50;;;25.21;84.26
33554;BME280;19885;42.208;24.952;2022-09-02T10:50:02;99550.41;;;25.00;85.13
33554;BME280;19885;42.208;24.952;2022-09-02T10:58:05;99552.31;;;24.82;87.95
33554;BME280;19885;42.208;24.952;2022-09-02T11:00:34;99548.88;;;24.80;88.71
33554;BME280;19885;42.208;24.952;2022-09-02T11:03:13;99541.47;;;24.85;89.07
33554;BME280;19885;42.208;24.952;2022-09-02T11:05:52;99535.94;;;24.88;89.10
33554;BME280;19885;42.208;24.952;2022-09-02T11:08:31;99511.69;;;24.46;87.09
33554;BME280;19885;42.208;24.952;2022-09-02T11:11:09;99561.69;;;24.41;82.76
33554;BME280;19885;42.208;24.952;2022-09-02T11:14:31;99555.13;;;23.98;83.20
33554;BME280;19885;42.208;24.952;2022-09-02T11:16:37;99549.50;;;23.70;81.79
33554;BME280;19885;42.208;24.952;2022-09-02T11:24:56;99556.94;;;23.10;83.57
33554;BME280;19885;42.208;24.952;2022-09-02T11:30:07;99542.22;;;22.67;86.23
33554;BME280;19885;42.208;24.952;2022-09-02T11:35:08;99531.44;;;22.70;87.05
33554;BME280;19885;42.208;24.952;2022-09-02T11:37:47;99548.75;;;22.79;87.18
33554;BME280;19885;42.208;24.952;2022-09-02T11:40:22;99552.75;;;22.50;87.16
33554;BME280;19885;42.208;24.952;2022-09-02T11:53:40;99545.47;;;23.10;86.39
33554;BME280;19885;42.208;24.952;2022-09-02T11:56:18;99539.84;;;23.16;86.03
33554;BME280;19885;42.208;24.952;2022-09-02T11:58:48;99536.75;;;23.42;85.70
33554;BME280;19885;42.208;24.952;2022-09-02T12:03:45;99549.69;;;23.31;83.42
33554;BME280;19885;42.208;24.952;2022-09-02T12:06:13;99547.22;;;23.28;85.21
33554;BME280;19885;42.208;24.952;2022-09-02T12:13:53;99552.91;;;23.20;85.99
33554;BME280;19885;42.208;24.952;2022-09-02T12:21:36;99543.34;;;23.35;85.42
33554;BME280;19885;42.208;24.952;2022-09-02T12:24:21;99545.63;;;23.24;85.37
33554;BME280;19885;42.208;24.952;2022-09-02T12:29:32;99534.19;;;23.22;86.25
33554;BME280;19885;42.208;24.952;2022-09-02T12:31:58;99542.13;;;23.23;86.10
33554;BME280;19885;42.208;24.952;2022-09-02T12:37:02;99538.75;;;23.20;85.85
33554;BME280;19885;42.208;24.952;2022-09-02T12:44:28;99513.38;;;22.96;86.82
33554;BME280;19885;42.208;24.952;2022-09-02T12:49:47;99525.25;;;22.89;86.23
33554;BME280;19885;42.208;24.952;2022-09-02T12:52:43;99530.78;;;22.84;87.32
33554;BME280;19885;42.208;24.952;2022-09-02T12:55:28;99528.22;;;22.83;88.20
33554;BME280;19885;42.208;24.952;2022-09-02T12:58:08;99522.59;;;22.70;88.08
33554;BME280;19885;42.208;24.952;2022-09-02T13:00:55;99516.44;;;22.69;88.22
33554;BME280;19885;42.208;24.952;2022-09-02T13:09:28;99512.75;;;22.72;89.79
33554;BME280;19885;42.208;24.952;2022-09-02T13:12:34;99516.44;;;22.69;90.26
33554;BME280;19885;42.208;24.952;2022-09-02T13:21:06;99499.69;;;22.67;91.09
33554;BME280;19885;42.208;24.952;2022-09-02T13:26:12;99513.31;;;22.79;90.88
33554;BME280;19885;42.208;24.952;2022-09-02T13:29:11;99511.81;;;22.92;89.93
33554;BME280;19885;42.208;24.952;2022-09-02T13:31:57;99503.97;;;22.89;89.65
33554;BME280;19885;42.208;24.952;2022-09-02T13:34:24;99486.16;;;22.91;88.64
33554;BME280;19885;42.208;24.952;2022-09-02T13:36:50;99490.47;;;22.93;88.81
33554;BME280;19885;42.208;24.952;2022-09-02T13:41:43;99474.06;;;22.85;87.97
33554;BME280;19885;42.208;24.952;2022-09-02T13:44:22;99486.25;;;22.89;87.97
33554;BME280;19885;42.208;24.952;2022-09-02T13:46:52;99461.91;;;22.80;87.83
33554;BME280;19885;42.208;24.952;2022-09-02T13:49:22;99499.31;;;22.94;88.03
33554;BME280;19885;42.208;24.952;2022-09-02T13:51:51;99492.03;;;22.97;87.84
33554;BME280;19885;42.208;24.952;2022-09-02T13:54:27;99487.72;;;22.95;87.45
33554;BME280;19885;42.208;24.952;2022-09-02T13:56:55;99504.94;;;23.05;88.80
33554;BME280;19885;42.208;24.952;2022-09-02T13:59:46;99506.19;;;23.15;88.40
33554;BME280;19885;42.208;24.952;2022-09-02T14:04:42;99507.00;;;23.17;88.27
33554;BME280;19885;42.208;24.952;2022-09-02T14:07:08;99515.53;;;23.23;88.40
33554;BME280;19885;42.208;24.952;2022-09-02T14:09:35;99504.94;;;23.22;88.47
33554;BME280;19885;42.208;24.952;2022-09-02T14:12:03;99501.50;;;23.20;88.67
33554;BME280;19885;42.208;24.952;2022-09-02T14:14:29;99484.78;;;23.18;88.82
33554;BME280;19885;42.208;24.952;2022-09-02T14:17:24;99490.97;;;23.18;88.73
33554;BME280;19885;42.208;24.952;2022-09-02T14:19:50;99489.22;;;23.17;89.23
33554;BME280;19885;42.208;24.952;2022-09-02T14:22:27;99479.13;;;23.24;90.05
33554;BME280;19885;42.208;24.952;2022-09-02T14:24:55;99489.47;;;23.30;88.68
33554;BME280;19885;42.208;24.952;2022-09-02T14:27:23;99490.34;;;23.30;88.87
33554;BME280;19885;42.208;24.952;2022-09-02T14:29:56;99493.06;;;23.29;87.76
33554;BME280;19885;42.208;24.952;2022-09-02T14:32:24;99489.78;;;23.07;89.14
33554;BME280;19885;42.208;24.952;2022-09-02T14:35:19;99497.06;;;23.20;88.75
33554;BME280;19885;42.208;24.952;2022-09-02T14:37:54;99491.19;;;23.31;89.04
33554;BME280;19885;42.208;24.952;2022-09-02T14:40:31;99491.03;;;23.51;89.03
33554;BME280;19885;42.208;24.952;2022-09-02T14:42:57;99481.81;;;23.58;88.00
33554;BME280;19885;42.208;24.952;2022-09-02T14:45:33;99479.00;;;23.61;87.82
33554;BME280;19885;42.208;24.952;2022-09-02T14:48:10;99473.47;;;23.49;87.04
33554;BME280;19885;42.208;24.952;2022-09-02T14:50:41;99484.13;;;23.49;88.32
33554;BME280;19885;42.208;24.952;2022-09-02T14:53:10;99483.53;;;23.42;87.52
33554;BME280;19885;42.208;24.952;2022-09-02T14:55:49;99491.69;;;23.39;88.04